createdAt,value
2018-08-13T00:01:03.013Z,86.48
2018-08-13T00:03:31.760Z,86.90
2018-08-13T00:06:00.434Z,86.68
2018-08-13T00:08:29.151Z,87.53
2018-08-13T00:10:57.843Z,88.01
2018-08-13T00:13:26.475Z,88.89
2018-08-13T00:15:55.154Z,88.88
2018-08-13T00:18:23.837Z,88.83
2018-08-13T00:20:52.527Z,88.82
2018-08-13T00:23:21.182Z,89.07
2018-08-13T00:25:49.953Z,88.66
2018-08-13T00:28:18.636Z,88.64
2018-08-13T00:30:47.373Z,88.97
2018-08-13T00:33:16.057Z,88.05
2018-08-13T00:35:44.738Z,88.45
2018-08-13T00:38:13.378Z,87.89
2018-08-13T00:40:42.080Z,86.41
2018-08-13T00:43:10.915Z,86.48
2018-08-13T00:45:39.614Z,88.15
2018-08-13T00:48:08.295Z,87.90
2018-08-13T00:50:36.991Z,87.14
2018-08-13T00:53:12.428Z,87.06
2018-08-13T00:55:41.105Z,87.42
2018-08-13T00:58:09.775Z,85.74
2018-08-13T01:00:38.498Z,85.79
2018-08-13T01:03:07.941Z,85.17
2018-08-13T01:05:36.615Z,85.92
2018-08-13T01:08:05.293Z,86.95
2018-08-13T01:10:33.979Z,87.97
2018-08-13T01:13:02.722Z,88.70
2018-08-13T01:15:31.408Z,88.15
2018-08-13T01:18:00.100Z,87.96
2018-08-13T01:20:28.789Z,86.80
2018-08-13T01:22:57.499Z,86.39
2018-08-13T01:25:26.177Z,87.11
2018-08-13T01:27:54.835Z,85.82
2018-08-13T01:30:23.511Z,85.70
2018-08-13T01:32:52.224Z,85.61
2018-08-13T01:35:20.899Z,86.19
2018-08-13T01:37:49.573Z,86.43
2018-08-13T01:40:18.231Z,86.57
2018-08-13T01:42:46.893Z,86.02
2018-08-13T01:45:15.569Z,86.87
2018-08-13T01:47:44.236Z,87.47
2018-08-13T01:50:13.645Z,88.27
2018-08-13T01:52:42.640Z,88.67
2018-08-13T01:55:11.883Z,88.65
2018-08-13T01:57:40.549Z,89.38
2018-08-13T02:00:14.307Z,89.37
2018-08-13T02:02:43.064Z,89.54
2018-08-13T02:05:11.762Z,89.13
2018-08-13T02:07:40.493Z,89.06
2018-08-13T02:10:11.128Z,88.63
2018-08-13T02:12:40.037Z,88.97
2018-08-13T02:15:08.747Z,89.22
2018-08-13T02:17:37.497Z,89.89
2018-08-13T02:20:07.507Z,90.54
2018-08-13T02:22:36.371Z,90.74
2018-08-13T02:25:06.175Z,91.01
2018-08-13T02:27:34.859Z,91.18
2018-08-13T02:30:03.733Z,91.79
2018-08-13T02:32:32.433Z,91.40
2018-08-13T02:35:01.113Z,90.95
2018-08-13T02:37:29.796Z,90.73
2018-08-13T02:39:58.470Z,90.59
2018-08-13T02:42:27.263Z,90.54
2018-08-13T02:44:55.957Z,91.08
2018-08-13T02:47:24.637Z,91.26
2018-08-13T02:49:53.271Z,91.17
2018-08-13T02:52:21.964Z,91.12
2018-08-13T02:54:50.653Z,91.45
2018-08-13T02:57:19.344Z,91.84
2018-08-13T02:59:47.997Z,92.19
2018-08-13T03:02:16.703Z,92.25
2018-08-13T03:04:45.466Z,92.24
2018-08-13T03:07:14.120Z,92.26
2018-08-13T03:09:42.788Z,92.58
2018-08-13T03:12:11.467Z,92.52
2018-08-13T03:14:40.193Z,91.89
2018-08-13T03:17:09.009Z,91.82
2018-08-13T03:19:37.666Z,92.06
2018-08-13T03:22:06.353Z,91.87
2018-08-13T03:24:35.011Z,91.70
2018-08-13T03:27:03.703Z,92.22
2018-08-13T03:29:32.368Z,92.03
2018-08-13T03:32:01.062Z,92.32
2018-08-13T03:34:29.719Z,91.97
2018-08-13T03:36:58.420Z,92.13
2018-08-13T03:39:27.059Z,91.98
2018-08-13T03:41:55.738Z,92.26
2018-08-13T03:44:24.418Z,92.42
2018-08-13T03:46:53.119Z,92.49
2018-08-13T03:49:21.768Z,92.29
2018-08-13T03:51:50.448Z,91.84
2018-08-13T03:54:19.116Z,91.59
2018-08-13T03:56:47.798Z,91.30
2018-08-13T03:59:16.478Z,91.75
2018-08-13T04:01:45.141Z,91.74
2018-08-13T04:04:13.834Z,91.73
2018-08-13T04:06:42.529Z,91.63
2018-08-13T04:09:11.207Z,91.71
2018-08-13T04:11:40.180Z,91.83
2018-08-13T04:14:09.684Z,91.58
2018-08-13T04:16:39.039Z,91.41
2018-08-13T04:19:08.847Z,91.35
2018-08-13T04:21:37.527Z,91.53
2018-08-13T04:24:06.213Z,91.79
2018-08-13T04:26:34.869Z,92.15
2018-08-13T04:29:03.584Z,92.88
2018-08-13T04:31:32.268Z,92.83
2018-08-13T04:34:00.986Z,92.95
2018-08-13T04:36:29.650Z,92.43
2018-08-13T04:38:58.322Z,91.56
2018-08-13T04:41:26.970Z,91.32
2018-08-13T04:43:55.640Z,91.10
2018-08-13T04:46:24.376Z,90.76
2018-08-13T04:48:53.096Z,90.79
2018-08-13T04:51:21.763Z,90.62
2018-08-13T04:53:50.521Z,90.82
2018-08-13T04:56:19.184Z,90.88
2018-08-13T04:58:47.896Z,90.78
2018-08-13T05:01:16.624Z,90.55
2018-08-13T05:03:45.283Z,90.31
2018-08-13T05:06:13.947Z,89.35
2018-08-13T05:08:42.632Z,88.21
2018-08-13T05:11:11.295Z,87.70
2018-08-13T05:13:39.958Z,88.22
2018-08-13T05:16:08.767Z,87.77
2018-08-13T05:18:37.500Z,87.16
2018-08-13T05:21:06.211Z,86.64
2018-08-13T05:23:34.941Z,86.73
2018-08-13T05:26:03.635Z,86.66
2018-08-13T05:28:32.328Z,88.63
2018-08-13T05:31:01.017Z,88.35
2018-08-13T05:33:29.709Z,84.92
2018-08-13T05:35:58.393Z,81.36
2018-08-13T05:38:27.089Z,81.00
2018-08-13T05:40:55.819Z,81.06
2018-08-13T05:43:24.568Z,79.88
2018-08-13T05:45:53.296Z,80.26
2018-08-13T05:48:21.992Z,78.77
2018-08-13T05:50:50.671Z,78.86
2018-08-13T05:53:19.377Z,79.19
2018-08-13T05:55:48.087Z,79.20
2018-08-13T05:58:16.766Z,78.23
2018-08-13T06:00:45.436Z,75.90
2018-08-13T06:03:14.222Z,73.81
2018-08-13T06:05:42.889Z,71.00
2018-08-13T06:08:11.615Z,71.50
2018-08-13T06:10:40.275Z,67.70
2018-08-13T06:13:08.999Z,66.74
2018-08-13T06:15:37.672Z,67.69
2018-08-13T06:18:06.773Z,67.96
2018-08-13T06:20:35.470Z,66.28
2018-08-13T06:23:04.145Z,67.67
2018-08-13T06:25:32.842Z,66.09
2018-08-13T06:28:01.504Z,66.45
2018-08-13T06:30:30.192Z,66.10
2018-08-13T06:32:58.867Z,67.04
2018-08-13T06:35:27.554Z,66.89
2018-08-13T06:37:56.208Z,67.00
2018-08-13T06:40:24.899Z,68.46
2018-08-13T06:42:53.628Z,66.50
2018-08-13T06:45:22.312Z,64.49
2018-08-13T06:47:51.044Z,62.85
2018-08-13T06:50:19.740Z,63.28
2018-08-13T06:52:48.400Z,63.20
2018-08-13T06:55:17.124Z,63.44
2018-08-13T06:57:45.797Z,61.89
2018-08-13T07:00:15.108Z,61.92
2018-08-13T07:02:43.831Z,61.15
2018-08-13T07:05:12.608Z,61.69
2018-08-13T07:13:47.177Z,59.55
2018-08-13T07:16:15.871Z,58.45
2018-08-13T07:18:44.635Z,56.35
2018-08-13T07:21:13.308Z,55.32
2018-08-13T07:23:41.992Z,54.12
2018-08-13T07:26:10.716Z,53.57
2018-08-13T07:28:39.394Z,54.44
2018-08-13T07:31:08.123Z,52.82
2018-08-13T07:33:36.799Z,53.18
2018-08-13T07:36:05.604Z,52.47
2018-08-13T07:38:34.295Z,51.59
2018-08-13T07:41:02.971Z,51.97
2018-08-13T07:43:31.657Z,51.28
2018-08-13T07:46:00.369Z,51.25
2018-08-13T07:48:29.065Z,49.58
2018-08-13T07:50:57.743Z,48.63
2018-08-13T07:53:26.407Z,48.47
2018-08-13T07:55:55.123Z,48.31
2018-08-13T07:58:23.766Z,48.42
2018-08-13T08:00:52.500Z,48.70
2018-08-13T08:03:21.138Z,47.03
2018-08-13T08:05:49.862Z,47.62
2018-08-13T08:08:18.508Z,48.60
2018-08-13T08:10:47.203Z,48.04
2018-08-13T08:13:15.886Z,49.67
2018-08-13T08:15:44.639Z,48.36
2018-08-13T08:18:13.351Z,48.25
2018-08-13T08:20:42.052Z,46.64
2018-08-13T08:23:10.718Z,46.69
2018-08-13T08:25:39.435Z,44.76
2018-08-13T08:28:08.128Z,46.94
2018-08-13T08:30:36.871Z,44.01
2018-08-13T08:33:06.738Z,43.61
2018-08-13T08:35:35.593Z,43.02
2018-08-13T08:38:04.296Z,43.45
2018-08-13T08:40:33.104Z,44.68
2018-08-13T08:43:01.739Z,42.09
2018-08-13T08:45:30.460Z,41.90
2018-08-13T08:47:59.123Z,41.84
2018-08-13T08:50:27.826Z,41.63
2018-08-13T08:52:56.469Z,41.85
2018-08-13T08:55:25.163Z,40.95
2018-08-13T08:57:53.848Z,39.20
2018-08-13T09:00:23.947Z,39.96
2018-08-13T09:02:52.679Z,38.20
2018-08-13T09:05:21.404Z,38.65
2018-08-13T09:07:50.076Z,38.30
2018-08-13T09:10:18.769Z,38.43
2018-08-13T09:12:47.446Z,37.43
2018-08-13T09:15:17.413Z,37.63
2018-08-13T09:17:58.363Z,39.75
2018-08-13T09:20:38.183Z,38.48
2018-08-13T09:23:18.069Z,38.29
2018-08-13T09:25:57.710Z,38.11
2018-08-13T09:28:37.480Z,35.15
2018-08-13T09:31:18.752Z,36.78
2018-08-13T09:33:58.495Z,36.70
2018-08-13T09:36:27.184Z,36.98
2018-08-13T09:38:55.834Z,36.08
2018-08-13T09:41:24.488Z,32.76
2018-08-13T09:43:53.113Z,34.24
2018-08-13T09:46:21.788Z,31.26
2018-08-13T09:48:50.481Z,30.79
2018-08-13T09:51:19.150Z,33.71
2018-08-13T09:53:47.835Z,32.58
2018-08-13T09:56:16.480Z,32.17
2018-08-13T09:58:45.122Z,31.48
2018-08-13T10:01:13.863Z,33.64
2018-08-13T10:03:42.508Z,31.73
2018-08-13T10:06:11.199Z,33.25
2018-08-13T10:08:39.827Z,31.16
2018-08-13T10:11:08.510Z,31.17
2018-08-13T10:13:37.179Z,31.75
2018-08-13T10:16:05.916Z,32.63
2018-08-13T10:18:34.647Z,32.19
2018-08-13T10:21:03.288Z,30.99
2018-08-13T10:23:32.020Z,31.72
2018-08-13T10:26:00.694Z,30.86
2018-08-13T10:28:29.423Z,31.52
2018-08-13T10:30:58.073Z,31.78
2018-08-13T10:33:26.772Z,31.46
2018-08-13T10:35:55.421Z,30.36
2018-08-13T10:38:24.115Z,31.93
2018-08-13T10:40:52.789Z,30.19
2018-08-13T10:43:21.499Z,30.84
2018-08-13T10:45:50.185Z,29.09
2018-08-13T10:48:18.844Z,30.30
2018-08-13T10:50:47.491Z,30.23
2018-08-13T10:53:16.177Z,31.92
2018-08-13T10:55:44.841Z,33.03
2018-08-13T10:58:13.546Z,32.78
2018-08-13T11:00:42.209Z,32.51
2018-08-13T11:03:10.910Z,32.08
2018-08-13T11:05:39.566Z,31.27
2018-08-13T11:08:08.327Z,30.74
2018-08-13T11:10:37.010Z,32.17
2018-08-13T11:13:05.718Z,32.79
2018-08-13T11:15:34.395Z,31.64
2018-08-13T11:18:03.179Z,31.98
2018-08-13T11:20:31.877Z,29.84
2018-08-13T11:23:00.564Z,30.97
2018-08-13T11:25:29.238Z,31.62
2018-08-13T11:27:57.955Z,30.81
2018-08-13T11:30:26.614Z,30.60
2018-08-13T11:32:55.274Z,31.47
2018-08-13T11:35:23.960Z,32.00
2018-08-13T11:37:52.650Z,31.28
2018-08-13T11:40:21.288Z,30.68
2018-08-13T11:42:49.996Z,30.17
2018-08-13T11:45:18.668Z,28.94
2018-08-13T11:47:47.339Z,28.38
2018-08-13T11:50:19.450Z,29.75
2018-08-13T11:52:49.450Z,29.94
2018-08-13T11:55:18.951Z,29.06
2018-08-13T11:57:48.770Z,27.86
2018-08-13T12:00:17.441Z,28.94
2018-08-13T12:02:46.192Z,29.23
2018-08-13T12:05:15.883Z,29.82
2018-08-13T12:07:46.047Z,30.47
2018-08-13T12:10:15.240Z,30.18
2018-08-13T12:12:44.478Z,29.87
2018-08-13T12:15:13.867Z,30.42
2018-08-13T12:17:43.128Z,29.84
2018-08-13T12:20:18.638Z,30.38
2018-08-13T12:22:47.577Z,31.16
2018-08-13T12:25:27.723Z,30.91
2018-08-13T12:27:56.569Z,28.93
2018-08-13T12:30:25.323Z,29.21
2018-08-13T12:32:54.696Z,29.27
2018-08-13T12:35:23.400Z,29.00
2018-08-13T12:37:52.469Z,28.85
2018-08-13T12:40:21.206Z,30.49
2018-08-13T12:42:49.954Z,31.03
2018-08-13T12:45:19.231Z,31.21
2018-08-13T12:47:47.899Z,32.02
2018-08-13T12:50:18.742Z,31.60
2018-08-13T12:52:48.694Z,32.72
2018-08-13T12:55:17.598Z,35.10
2018-08-13T12:57:46.309Z,35.98
2018-08-13T13:00:16.144Z,36.92
2018-08-13T13:02:44.895Z,38.14
2018-08-13T13:05:14.909Z,37.74
2018-08-13T13:07:43.579Z,37.76
2018-08-13T13:10:14.039Z,37.91
2018-08-13T13:12:43.025Z,38.78
2018-08-13T13:15:14.123Z,39.08
2018-08-13T13:17:42.831Z,39.82
2018-08-13T13:20:13.991Z,40.29
2018-08-13T13:22:42.643Z,42.19
2018-08-13T13:25:11.314Z,43.71
2018-08-13T13:27:40.013Z,46.44
2018-08-13T13:30:12.079Z,46.71
2018-08-13T13:32:40.883Z,48.28
2018-08-13T13:35:11.153Z,47.60
2018-08-13T13:37:39.829Z,48.01
2018-08-13T13:40:10.802Z,49.58
2018-08-13T13:42:39.833Z,50.03
2018-08-13T13:45:09.525Z,50.70
2018-08-13T13:47:38.730Z,51.86
2018-08-13T13:50:10.244Z,53.33
2018-08-13T13:52:38.915Z,56.07
2018-08-13T13:55:07.895Z,57.26
2018-08-13T13:57:36.548Z,57.45
2018-08-13T14:00:22.699Z,58.39
2018-08-13T14:02:52.238Z,58.73
2018-08-13T14:05:21.458Z,60.10
2018-08-13T14:07:50.128Z,60.50
2018-08-13T14:10:22.766Z,61.25
2018-08-13T14:12:51.452Z,61.92
2018-08-13T14:15:20.935Z,64.90
2018-08-13T14:17:50.092Z,67.64
2018-08-13T14:20:18.853Z,67.68
2018-08-13T14:22:47.538Z,68.74
2018-08-13T14:25:16.299Z,68.03
2018-08-13T14:27:45.012Z,68.41
2018-08-13T14:30:19.268Z,69.59
2018-08-13T14:32:48.215Z,70.21
2018-08-13T14:35:17.607Z,71.61
2018-08-13T14:37:46.340Z,72.03
2018-08-13T14:40:15.065Z,72.30
2018-08-13T14:42:44.497Z,72.13
2018-08-13T14:45:14.591Z,72.56
2018-08-13T14:47:44.666Z,74.30
2018-08-13T14:50:13.819Z,73.69
2018-08-13T14:52:43.821Z,72.38
2018-08-13T14:55:13.381Z,72.88
2018-08-13T14:57:42.037Z,75.08
2018-08-13T15:00:19.583Z,72.45
2018-08-13T15:02:48.380Z,75.06
2018-08-13T15:05:17.464Z,74.04
2018-08-13T15:07:46.164Z,75.60
2018-08-13T15:10:16.603Z,74.96
2018-08-13T15:12:45.656Z,75.70
2018-08-13T15:15:14.474Z,75.08
2018-08-13T15:17:43.311Z,74.71
2018-08-13T15:20:24.874Z,74.35
2018-08-13T15:22:53.870Z,73.19
2018-08-13T15:25:22.631Z,74.00
2018-08-13T15:27:51.471Z,74.93
2018-08-13T15:30:20.943Z,73.92
2018-08-13T15:32:50.561Z,74.06
2018-08-13T15:35:19.263Z,74.59
2018-08-13T15:37:48.389Z,74.16
2018-08-13T15:40:17.129Z,74.11
2018-08-13T15:42:45.844Z,73.91
2018-08-13T15:45:16.993Z,73.26
2018-08-13T15:47:46.074Z,72.32
2018-08-13T15:50:16.515Z,72.35
2018-08-13T15:52:45.591Z,71.95
2018-08-13T15:55:14.718Z,70.53
2018-08-13T15:57:43.908Z,68.08
2018-08-13T16:00:14.561Z,68.46
2018-08-13T16:02:43.322Z,68.32
2018-08-13T16:05:12.520Z,66.98
2018-08-13T16:07:41.245Z,66.47
2018-08-13T16:10:11.990Z,68.55
2018-08-13T16:12:40.733Z,67.19
2018-08-13T16:15:09.779Z,66.98
2018-08-13T16:17:39.212Z,69.06
2018-08-13T16:20:11.895Z,68.35
2018-08-13T16:22:40.648Z,68.12
2018-08-13T16:25:09.428Z,68.73
2018-08-13T16:27:38.580Z,69.11
2018-08-13T16:30:14.491Z,70.08
2018-08-13T16:32:43.257Z,69.20
2018-08-13T16:35:12.004Z,70.09
2018-08-13T16:37:40.687Z,70.56
2018-08-13T16:40:09.344Z,70.10
2018-08-13T16:42:38.083Z,70.03
2018-08-13T16:45:07.104Z,69.73
2018-08-13T16:47:36.159Z,69.33
2018-08-13T16:50:07.022Z,68.67
2018-08-13T16:52:35.674Z,69.03
2018-08-13T16:55:04.934Z,69.85
2018-08-13T16:57:33.661Z,70.00
2018-08-13T17:00:02.356Z,70.16
2018-08-13T17:02:31.078Z,69.77
2018-08-13T17:04:59.757Z,70.00
2018-08-13T17:07:28.459Z,69.56
2018-08-13T17:09:57.143Z,69.12
2018-08-13T17:12:25.889Z,69.27
2018-08-13T17:14:54.646Z,68.82
2018-08-13T17:17:23.383Z,68.80
2018-08-13T17:19:52.045Z,68.97
2018-08-13T17:22:20.719Z,69.22
2018-08-13T17:24:49.408Z,69.04
2018-08-13T17:27:18.125Z,69.40
2018-08-13T17:29:46.810Z,69.44
2018-08-13T17:32:15.516Z,70.14
2018-08-13T17:34:44.204Z,70.12
2018-08-13T17:37:12.884Z,70.20
2018-08-13T17:39:41.599Z,70.43
2018-08-13T17:42:10.396Z,71.48
2018-08-13T17:44:39.085Z,71.28
2018-08-13T17:47:07.811Z,71.48
2018-08-13T17:49:36.556Z,71.34
2018-08-13T17:52:05.267Z,71.65
2018-08-13T17:54:33.927Z,71.53
2018-08-13T17:57:02.607Z,71.89
2018-08-13T17:59:31.300Z,71.99
2018-08-13T18:01:59.996Z,72.23
2018-08-13T18:04:28.659Z,72.27
2018-08-13T18:06:57.333Z,72.92
2018-08-13T18:09:25.992Z,73.51
2018-08-13T18:11:54.715Z,74.81
2018-08-13T18:14:23.415Z,75.11
2018-08-13T18:16:52.128Z,75.36
2018-08-13T18:19:20.835Z,75.88
2018-08-13T18:21:49.550Z,76.04
2018-08-13T18:24:18.225Z,77.16
2018-08-13T18:26:46.885Z,77.23
2018-08-13T18:29:15.587Z,77.66
2018-08-13T18:31:44.303Z,78.43
2018-08-13T18:34:12.603Z,79.34
2018-08-13T18:36:41.379Z,79.59
2018-08-13T18:39:10.031Z,79.85
2018-08-13T18:41:38.711Z,80.48
2018-08-13T18:44:09.383Z,81.27
2018-08-13T18:46:38.067Z,81.55
2018-08-13T18:49:06.790Z,82.52
2018-08-13T18:51:35.460Z,83.76
2018-08-13T18:54:04.163Z,84.15
2018-08-13T18:56:32.817Z,83.71
2018-08-13T18:59:01.620Z,83.50
2018-08-13T19:01:30.255Z,83.53
2018-08-13T19:03:59.032Z,82.81
2018-08-13T19:06:27.715Z,83.26
2018-08-13T19:08:56.429Z,83.29
2018-08-13T19:11:25.124Z,83.33
2018-08-13T19:13:53.851Z,85.57
2018-08-13T19:16:22.555Z,86.21
2018-08-13T19:18:51.260Z,87.44
2018-08-13T19:21:19.896Z,88.30
2018-08-13T19:23:48.567Z,89.01
2018-08-13T19:26:17.219Z,90.41
2018-08-13T19:28:45.878Z,90.63
2018-08-13T19:31:14.518Z,91.09
2018-08-13T19:33:43.215Z,92.75
2018-08-13T19:36:11.900Z,93.84
2018-08-13T19:38:40.575Z,94.56
2018-08-13T19:41:09.237Z,94.90
2018-08-13T19:43:37.903Z,94.67
2018-08-13T19:46:06.955Z,94.89
2018-08-13T19:48:35.613Z,95.22
2018-08-13T19:51:04.335Z,94.75
2018-08-13T19:53:33.016Z,94.74
2018-08-13T19:56:01.673Z,94.97
2018-08-13T19:58:30.360Z,95.71
2018-08-13T20:00:59.065Z,95.87
2018-08-13T20:03:27.736Z,96.37
2018-08-13T20:05:56.408Z,96.54
2018-08-13T20:08:25.093Z,96.83
2018-08-13T20:10:53.734Z,97.03
2018-08-13T20:13:22.425Z,97.74
2018-08-13T20:15:51.105Z,98.22
2018-08-13T20:18:19.780Z,98.55
2018-08-13T20:20:48.449Z,98.81
2018-08-13T20:23:17.115Z,98.87
2018-08-13T20:25:45.781Z,99.16
2018-08-13T20:28:14.481Z,99.18
2018-08-13T20:30:43.161Z,99.35
2018-08-13T20:33:11.872Z,99.74
2018-08-13T20:35:40.531Z,99.93
2018-08-13T20:38:09.207Z,99.90
2018-08-13T20:40:37.910Z,100.00
2018-08-13T20:43:06.949Z,100.00
2018-08-13T20:45:35.600Z,100.00
2018-08-13T20:48:04.252Z,100.00
2018-08-13T20:50:32.997Z,100.00
2018-08-13T20:53:01.745Z,100.00
2018-08-13T20:55:30.624Z,100.00
2018-08-13T20:57:59.366Z,100.00
2018-08-13T21:00:29.741Z,100.00
2018-08-13T21:02:58.455Z,100.00
2018-08-13T21:05:27.134Z,100.00
2018-08-13T21:07:55.852Z,100.00
2018-08-13T21:10:25.440Z,100.00
2018-08-13T21:12:54.270Z,100.00
2018-08-13T21:15:23.044Z,100.00
2018-08-13T21:17:52.186Z,100.00
2018-08-13T21:20:22.735Z,100.00
2018-08-13T21:22:51.433Z,100.00
2018-08-13T21:25:20.139Z,100.00
2018-08-13T21:27:48.868Z,100.00
2018-08-13T21:30:17.548Z,100.00
2018-08-13T21:32:46.615Z,99.34
2018-08-13T21:35:17.364Z,99.53
2018-08-13T21:37:46.374Z,99.18
2018-08-13T21:40:15.072Z,99.17
2018-08-13T21:42:44.034Z,98.92
2018-08-13T21:45:13.078Z,98.83
2018-08-13T21:47:41.915Z,98.81
2018-08-13T21:50:13.824Z,98.80
2018-08-13T21:52:42.504Z,98.53
2018-08-13T21:55:11.366Z,98.59
2018-08-13T21:57:40.031Z,98.75
2018-08-13T22:00:36.079Z,98.76
2018-08-13T22:03:05.152Z,98.58
2018-08-13T22:05:33.823Z,98.86
2018-08-13T22:08:02.541Z,98.74
2018-08-13T22:10:31.216Z,98.76
2018-08-13T22:12:59.884Z,99.06
2018-08-13T22:15:29.747Z,98.98
2018-08-13T22:18:00.181Z,99.09
2018-08-13T22:20:29.921Z,98.80
2018-08-13T22:22:59.854Z,99.00
2018-08-13T22:25:31.043Z,99.21
2018-08-13T22:28:00.334Z,99.20
2018-08-13T22:30:29.492Z,99.32
2018-08-13T22:32:58.146Z,99.37
2018-08-13T22:35:26.859Z,99.58
2018-08-13T22:37:55.532Z,99.44
2018-08-13T22:40:24.285Z,99.50
2018-08-13T22:42:53.031Z,99.61
2018-08-13T22:45:23.625Z,99.70
2018-08-13T22:47:52.319Z,99.72
2018-08-13T22:50:21.016Z,99.83
2018-08-13T22:52:49.773Z,99.73
2018-08-13T22:55:19.124Z,99.65
2018-08-13T22:57:48.187Z,99.74
2018-08-13T23:00:18.900Z,99.79
2018-08-13T23:02:48.470Z,99.68
2018-08-13T23:05:19.666Z,99.92
2018-08-13T23:07:48.339Z,99.82
2018-08-13T23:10:18.545Z,99.79
2018-08-13T23:12:48.496Z,100.00
2018-08-13T23:15:17.730Z,100.00
2018-08-13T23:17:46.860Z,100.00
2018-08-13T23:20:25.419Z,99.95
2018-08-13T23:22:56.215Z,99.98
2018-08-13T23:25:25.025Z,100.00
2018-08-13T23:27:54.787Z,100.00
2018-08-13T23:30:23.452Z,100.00
2018-08-13T23:32:53.367Z,100.00
2018-08-13T23:35:22.769Z,100.00
2018-08-13T23:37:51.917Z,99.79
2018-08-13T23:40:20.621Z,100.00
2018-08-13T23:42:49.378Z,99.96
2018-08-13T23:45:20.285Z,100.00
2018-08-13T23:47:49.252Z,100.00
2018-08-13T23:50:19.819Z,100.00
2018-08-13T23:52:49.789Z,100.00
2018-08-13T23:55:31.133Z,100.00
2018-08-13T23:58:00.267Z,100.00
